sensor_id;sensor_type;location;lat;lon;timestamp;temperature;humidity
7900;DHT22;3995;50.856;4.404;2022-10-03T00:01:21;17.40;57.80
7900;DHT22;3995;50.856;4.404;2022-10-03T00:04:00;17.40;57.80
7900;DHT22;3995;50.856;4.404;2022-10-03T00:06:40;17.40;58.00
7900;DHT22;3995;50.856;4.404;2022-10-03T00:09:21;17.40;57.90
7900;DHT22;3995;50.856;4.404;2022-10-03T00:12:02;17.40;58.00
7900;DHT22;3995;50.856;4.404;2022-10-03T00:14:40;17.40;57.90
7900;DHT22;3995;50.856;4.404;2022-10-03T00:17:14;17.40;58.10
7900;DHT22;3995;50.856;4.404;2022-10-03T00:19:48;17.40;58.00
7900;DHT22;3995;50.856;4.404;2022-10-03T00:22:26;17.30;57.90
7900;DHT22;3995;50.856;4.404;2022-10-03T00:27:49;17.40;57.90
7900;DHT22;3995;50.856;4.404;2022-10-03T00:30:19;17.30;57.90
7900;DHT22;3995;50.856;4.404;2022-10-03T00:33:05;17.30;58.00
7900;DHT22;3995;50.856;4.404;2022-10-03T00:36:00;17.40;57.90
7900;DHT22;3995;50.856;4.404;2022-10-03T00:45:10;17.30;57.90
7900;DHT22;3995;50.856;4.404;2022-10-03T00:51:10;17.20;58.00
7900;DHT22;3995;50.856;4.404;2022-10-03T00:53:52;17.20;58.00
7900;DHT22;3995;50.856;4.404;2022-10-03T00:56:38;17.20;58.00
7900;DHT22;3995;50.856;4.404;2022-10-03T00:59:25;17.20;58.10
7900;DHT22;3995;50.856;4.404;2022-10-03T01:01:55;17.20;57.90
7900;DHT22;3995;50.856;4.404;2022-10-03T01:04:35;17.20;57.90
7900;DHT22;3995;50.856;4.404;2022-10-03T01:07:24;17.20;57.70
7900;DHT22;3995;50.856;4.404;2022-10-03T01:10:00;17.20;57.90
7900;DHT22;3995;50.856;4.404;2022-10-03T01:12:55;17.20;57.90
7900;DHT22;3995;50.856;4.404;2022-10-03T01:15:30;17.20;57.80
7900;DHT22;3995;50.856;4.404;2022-10-03T01:18:14;17.20;57.80
7900;DHT22;3995;50.856;4.404;2022-10-03T01:20:54;17.20;57.70
7900;DHT22;3995;50.856;4.404;2022-10-03T01:23:37;17.20;57.80
7900;DHT22;3995;50.856;4.404;2022-10-03T01:26:23;17.20;57.80
7900;DHT22;3995;50.856;4.404;2022-10-03T01:28:59;17.20;57.70
7900;DHT22;3995;50.856;4.404;2022-10-03T01:31:50;17.10;57.80
7900;DHT22;3995;50.856;4.404;2022-10-03T01:34:26;17.10;57.90
7900;DHT22;3995;50.856;4.404;2022-10-03T01:37:03;17.20;57.90
7900;DHT22;3995;50.856;4.404;2022-10-03T01:39:37;17.20;57.80
7900;DHT22;3995;50.856;4.404;2022-10-03T01:42:11;17.20;57.70
7900;DHT22;3995;50.856;4.404;2022-10-03T01:45:00;17.20;57.60
7900;DHT22;3995;50.856;4.404;2022-10-03T01:47:34;17.20;57.50
7900;DHT22;3995;50.856;4.404;2022-10-03T01:50:10;17.20;57.70
7900;DHT22;3995;50.856;4.404;2022-10-03T01:52:48;17.20;57.60
7900;DHT22;3995;50.856;4.404;2022-10-03T01:55:24;17.20;57.50
7900;DHT22;3995;50.856;4.404;2022-10-03T01:57:59;17.20;57.40
7900;DHT22;3995;50.856;4.404;2022-10-03T02:00:35;17.20;57.20
7900;DHT22;3995;50.856;4.404;2022-10-03T02:03:12;17.20;57.20
7900;DHT22;3995;50.856;4.404;2022-10-03T02:05:52;17.20;57.60
7900;DHT22;3995;50.856;4.404;2022-10-03T02:08:30;17.20;57.70
7900;DHT22;3995;50.856;4.404;2022-10-03T02:11:02;17.20;57.50
7900;DHT22;3995;50.856;4.404;2022-10-03T02:13:40;17.20;57.30
7900;DHT22;3995;50.856;4.404;2022-10-03T02:16:15;17.20;57.40
7900;DHT22;3995;50.856;4.404;2022-10-03T02:18:48;17.20;57.60
7900;DHT22;3995;50.856;4.404;2022-10-03T02:21:19;17.20;57.70
7900;DHT22;3995;50.856;4.404;2022-10-03T02:23:49;17.20;57.80
7900;DHT22;3995;50.856;4.404;2022-10-03T02:26:49;17.20;57.80
7900;DHT22;3995;50.856;4.404;2022-10-03T02:29:32;17.30;57.90
7900;DHT22;3995;50.856;4.404;2022-10-03T02:32:19;17.20;57.80
7900;DHT22;3995;50.856;4.404;2022-10-03T02:35:11;17.20;57.90
7900;DHT22;3995;50.856;4.404;2022-10-03T02:38:07;17.20;57.70
7900;DHT22;3995;50.856;4.404;2022-10-03T02:41:02;17.20;57.60
7900;DHT22;3995;50.856;4.404;2022-10-03T02:43:55;17.20;57.50
7900;DHT22;3995;50.856;4.404;2022-10-03T02:47:02;17.20;57.30
7900;DHT22;3995;50.856;4.404;2022-10-03T02:50:10;17.20;57.40
7900;DHT22;3995;50.856;4.404;2022-10-03T02:53:12;17.20;57.30
7900;DHT22;3995;50.856;4.404;2022-10-03T03:05:30;17.10;57.70
7900;DHT22;3995;50.856;4.404;2022-10-03T03:08:27;17.10;57.70
7900;DHT22;3995;50.856;4.404;2022-10-03T03:11:37;17.10;57.40
7900;DHT22;3995;50.856;4.404;2022-10-03T03:14:39;17.10;57.20
7900;DHT22;3995;50.856;4.404;2022-10-03T03:17:23;17.10;57.20
7900;DHT22;3995;50.856;4.404;2022-10-03T03:20:09;17.10;57.60
7900;DHT22;3995;50.856;4.404;2022-10-03T03:22:53;17.10;57.70
7900;DHT22;3995;50.856;4.404;2022-10-03T03:25:35;17.10;57.40
7900;DHT22;3995;50.856;4.404;2022-10-03T03:28:15;17.10;57.30
7900;DHT22;3995;50.856;4.404;2022-10-03T03:30:54;17.10;57.80
7900;DHT22;3995;50.856;4.404;2022-10-03T03:33:30;17.00;57.40
7900;DHT22;3995;50.856;4.404;2022-10-03T03:36:07;17.10;57.60
7900;DHT22;3995;50.856;4.404;2022-10-03T03:38:42;17.10;57.50
7900;DHT22;3995;50.856;4.404;2022-10-03T03:41:30;17.10;57.30
7900;DHT22;3995;50.856;4.404;2022-10-03T03:44:23;17.10;57.10
7900;DHT22;3995;50.856;4.404;2022-10-03T03:47:15;17.10;57.30
7900;DHT22;3995;50.856;4.404;2022-10-03T03:49:56;17.10;57.50
7900;DHT22;3995;50.856;4.404;2022-10-03T03:52:38;17.10;57.50
7900;DHT22;3995;50.856;4.404;2022-10-03T03:55:33;17.10;57.40
7900;DHT22;3995;50.856;4.404;2022-10-03T03:58:25;17.10;57.10
7900;DHT22;3995;50.856;4.404;2022-10-03T04:01:09;17.10;57.00
7900;DHT22;3995;50.856;4.404;2022-10-03T04:03:51;17.00;57.00
7900;DHT22;3995;50.856;4.404;2022-10-03T04:06:32;17.00;56.80
7900;DHT22;3995;50.856;4.404;2022-10-03T04:09:13;17.00;57.00
7900;DHT22;3995;50.856;4.404;2022-10-03T04:11:54;17.00;57.20
7900;DHT22;3995;50.856;4.404;2022-10-03T04:18:14;17.00;57.00
7900;DHT22;3995;50.856;4.404;2022-10-03T04:21:17;17.00;57.30
7900;DHT22;3995;50.856;4.404;2022-10-03T04:24:03;17.00;57.30
7900;DHT22;3995;50.856;4.404;2022-10-03T04:26:43;17.00;57.20
7900;DHT22;3995;50.856;4.404;2022-10-03T04:29:42;17.00;57.30
7900;DHT22;3995;50.856;4.404;2022-10-03T04:32:25;17.00;57.30
7900;DHT22;3995;50.856;4.404;2022-10-03T04:35:14;17.00;57.30
7900;DHT22;3995;50.856;4.404;2022-10-03T04:37:46;17.00;57.50
7900;DHT22;3995;50.856;4.404;2022-10-03T04:40:25;17.00;57.60
7900;DHT22;3995;50.856;4.404;2022-10-03T04:43:06;17.00;57.50
7900;DHT22;3995;50.856;4.404;2022-10-03T04:45:51;17.00;57.50
7900;DHT22;3995;50.856;4.404;2022-10-03T04:48:26;17.10;57.50
7900;DHT22;3995;50.856;4.404;2022-10-03T04:51:05;17.00;57.30
7900;DHT22;3995;50.856;4.404;2022-10-03T04:53:41;17.00;57.10
7900;DHT22;3995;50.856;4.404;2022-10-03T04:56:20;17.00;57.00
7900;DHT22;3995;50.856;4.404;2022-10-03T04:58:53;17.00;57.10
7900;DHT22;3995;50.856;4.404;2022-10-03T05:01:32;17.00;57.20
7900;DHT22;3995;50.856;4.404;2022-10-03T05:04:06;17.00;57.20
7900;DHT22;3995;50.856;4.404;2022-10-03T05:06:43;17.00;57.20
7900;DHT22;3995;50.856;4.404;2022-10-03T05:09:23;17.00;57.30
7900;DHT22;3995;50.856;4.404;2022-10-03T05:12:01;17.00;57.30
7900;DHT22;3995;50.856;4.404;2022-10-03T05:14:48;17.00;57.30
7900;DHT22;3995;50.856;4.404;2022-10-03T05:17:26;17.00;57.20
7900;DHT22;3995;50.856;4.404;2022-10-03T05:20:22;17.00;57.30
7900;DHT22;3995;50.856;4.404;2022-10-03T05:22:56;17.10;57.90
7900;DHT22;3995;50.856;4.404;2022-10-03T05:25:35;17.00;57.40
7900;DHT22;3995;50.856;4.404;2022-10-03T05:28:15;17.00;57.30
7900;DHT22;3995;50.856;4.404;2022-10-03T05:30:52;17.00;57.20
7900;DHT22;3995;50.856;4.404;2022-10-03T05:33:32;17.00;57.30
7900;DHT22;3995;50.856;4.404;2022-10-03T05:36:10;17.00;57.20
7900;DHT22;3995;50.856;4.404;2022-10-03T05:41:38;17.00;57.20
7900;DHT22;3995;50.856;4.404;2022-10-03T05:44:15;16.90;57.30
7900;DHT22;3995;50.856;4.404;2022-10-03T05:46:57;17.00;57.30
7900;DHT22;3995;50.856;4.404;2022-10-03T05:49:53;17.00;57.30
7900;DHT22;3995;50.856;4.404;2022-10-03T05:52:51;17.00;57.20
7900;DHT22;3995;50.856;4.404;2022-10-03T05:55:28;17.00;57.40
7900;DHT22;3995;50.856;4.404;2022-10-03T06:04:08;16.90;57.40
7900;DHT22;3995;50.856;4.404;2022-10-03T06:06:53;16.90;57.50
7900;DHT22;3995;50.856;4.404;2022-10-03T06:09:53;16.90;57.50
7900;DHT22;3995;50.856;4.404;2022-10-03T06:12:32;16.90;57.40
7900;DHT22;3995;50.856;4.404;2022-10-03T06:15:21;16.90;57.80
7900;DHT22;3995;50.856;4.404;2022-10-03T06:18:01;17.00;57.50
7900;DHT22;3995;50.856;4.404;2022-10-03T06:21:05;16.90;57.50
7900;DHT22;3995;50.856;4.404;2022-10-03T06:30:11;16.90;57.50
7900;DHT22;3995;50.856;4.404;2022-10-03T06:36:08;16.90;57.70
7900;DHT22;3995;50.856;4.404;2022-10-03T06:42:20;16.90;57.60
7900;DHT22;3995;50.856;4.404;2022-10-03T06:45:29;16.90;57.80
7900;DHT22;3995;50.856;4.404;2022-10-03T06:48:15;16.90;57.80
7900;DHT22;3995;50.856;4.404;2022-10-03T06:50:53;16.90;57.90
7900;DHT22;3995;50.856;4.404;2022-10-03T06:53:44;16.90;57.90
7900;DHT22;3995;50.856;4.404;2022-10-03T06:56:46;16.90;57.90
7900;DHT22;3995;50.856;4.404;2022-10-03T07:02:46;16.90;58.00
7900;DHT22;3995;50.856;4.404;2022-10-03T07:05:47;16.90;58.00
7900;DHT22;3995;50.856;4.404;2022-10-03T07:08:53;16.90;58.10
7900;DHT22;3995;50.856;4.404;2022-10-03T07:11:38;16.90;58.00
7900;DHT22;3995;50.856;4.404;2022-10-03T07:14:48;16.90;58.20
7900;DHT22;3995;50.856;4.404;2022-10-03T07:17:32;17.00;58.20
7900;DHT22;3995;50.856;4.404;2022-10-03T07:20:31;17.00;58.30
7900;DHT22;3995;50.856;4.404;2022-10-03T07:23:28;17.00;58.20
7900;DHT22;3995;50.856;4.404;2022-10-03T07:32:22;17.00;58.30
7900;DHT22;3995;50.856;4.404;2022-10-03T07:35:20;17.00;58.10
7900;DHT22;3995;50.856;4.404;2022-10-03T07:41:24;17.10;58.40
7900;DHT22;3995;50.856;4.404;2022-10-03T07:44:27;17.10;58.50
7900;DHT22;3995;50.856;4.404;2022-10-03T07:50:28;17.10;58.40
7900;DHT22;3995;50.856;4.404;2022-10-03T07:53:18;17.20;58.50
7900;DHT22;3995;50.856;4.404;2022-10-03T07:55:57;17.10;58.50
7900;DHT22;3995;50.856;4.404;2022-10-03T07:58:54;17.10;58.40
7900;DHT22;3995;50.856;4.404;2022-10-03T08:01:41;17.20;58.40
7900;DHT22;3995;50.856;4.404;2022-10-03T08:07:41;17.20;58.50
7900;DHT22;3995;50.856;4.404;2022-10-03T08:13:23;17.20;58.70
7900;DHT22;3995;50.856;4.404;2022-10-03T08:16:07;17.20;58.60
7900;DHT22;3995;50.856;4.404;2022-10-03T08:19:00;17.20;58.50
7900;DHT22;3995;50.856;4.404;2022-10-03T08:21:37;17.30;58.90
7900;DHT22;3995;50.856;4.404;2022-10-03T08:24:23;17.20;58.30
7900;DHT22;3995;50.856;4.404;2022-10-03T08:27:19;17.30;58.40
7900;DHT22;3995;50.856;4.404;2022-10-03T08:30:20;17.30;58.40
7900;DHT22;3995;50.856;4.404;2022-10-03T08:33:34;17.30;58.30
7900;DHT22;3995;50.856;4.404;2022-10-03T08:36:29;17.30;58.20
7900;DHT22;3995;50.856;4.404;2022-10-03T08:39:10;17.30;58.20
7900;DHT22;3995;50.856;4.404;2022-10-03T08:45:18;17.40;58.20
7900;DHT22;3995;50.856;4.404;2022-10-03T08:54:47;17.30;58.10
7900;DHT22;3995;50.856;4.404;2022-10-03T08:57:49;17.30;58.00
7900;DHT22;3995;50.856;4.404;2022-10-03T09:00:22;17.40;58.10
7900;DHT22;3995;50.856;4.404;2022-10-03T09:03:38;17.40;58.20
7900;DHT22;3995;50.856;4.404;2022-10-03T09:06:45;17.50;57.80
7900;DHT22;3995;50.856;4.404;2022-10-03T09:09:42;17.40;57.70
7900;DHT22;3995;50.856;4.404;2022-10-03T09:12:32;17.40;57.90
7900;DHT22;3995;50.856;4.404;2022-10-03T09:15:17;17.50;58.00
7900;DHT22;3995;50.856;4.404;2022-10-03T09:18:23;17.50;57.90
7900;DHT22;3995;50.856;4.404;2022-10-03T09:21:25;17.50;57.70
7900;DHT22;3995;50.856;4.404;2022-10-03T09:30:39;17.60;57.70
7900;DHT22;3995;50.856;4.404;2022-10-03T09:33:41;17.60;57.90
7900;DHT22;3995;50.856;4.404;2022-10-03T09:42:39;17.70;57.80
7900;DHT22;3995;50.856;4.404;2022-10-03T09:48:24;17.80;57.70
7900;DHT22;3995;50.856;4.404;2022-10-03T09:54:31;17.90;57.80
7900;DHT22;3995;50.856;4.404;2022-10-03T10:00:20;17.90;57.60
7900;DHT22;3995;50.856;4.404;2022-10-03T10:03:22;17.90;57.60
7900;DHT22;3995;50.856;4.404;2022-10-03T10:06:25;18.00;57.60
7900;DHT22;3995;50.856;4.404;2022-10-03T10:09:26;18.10;57.60
7900;DHT22;3995;50.856;4.404;2022-10-03T10:21:20;18.40;57.20
7900;DHT22;3995;50.856;4.404;2022-10-03T10:24:03;18.50;57.00
7900;DHT22;3995;50.856;4.404;2022-10-03T10:33:17;18.70;56.30
7900;DHT22;3995;50.856;4.404;2022-10-03T10:36:33;18.70;56.00
7900;DHT22;3995;50.856;4.404;2022-10-03T10:58:10;18.70;56.40
7900;DHT22;3995;50.856;4.404;2022-10-03T11:01:29;18.70;56.80
7900;DHT22;3995;50.856;4.404;2022-10-03T11:04:35;18.70;56.30
7900;DHT22;3995;50.856;4.404;2022-10-03T11:07:38;18.70;56.40
7900;DHT22;3995;50.856;4.404;2022-10-03T11:10:35;18.70;56.60
7900;DHT22;3995;50.856;4.404;2022-10-03T11:20:01;18.80;56.60
7900;DHT22;3995;50.856;4.404;2022-10-03T11:26:20;19.00;56.20
7900;DHT22;3995;50.856;4.404;2022-10-03T11:29:17;19.20;56.00
7900;DHT22;3995;50.856;4.404;2022-10-03T11:38:11;19.20;55.60
7900;DHT22;3995;50.856;4.404;2022-10-03T11:40:54;19.10;55.60
7900;DHT22;3995;50.856;4.404;2022-10-03T11:46:42;19.10;55.50
7900;DHT22;3995;50.856;4.404;2022-10-03T11:49:35;19.10;55.70
7900;DHT22;3995;50.856;4.404;2022-10-03T11:52:13;19.10;55.70
7900;DHT22;3995;50.856;4.404;2022-10-03T11:54:46;19.00;55.80
7900;DHT22;3995;50.856;4.404;2022-10-03T11:57:23;19.00;55.80
7900;DHT22;3995;50.856;4.404;2022-10-03T11:59:57;19.10;55.80
7900;DHT22;3995;50.856;4.404;2022-10-03T12:02:51;19.10;55.80
7900;DHT22;3995;50.856;4.404;2022-10-03T12:05:27;19.10;55.60
7900;DHT22;3995;50.856;4.404;2022-10-03T12:08:13;19.00;55.60
7900;DHT22;3995;50.856;4.404;2022-10-03T12:11:05;19.10;55.30
7900;DHT22;3995;50.856;4.404;2022-10-03T12:13:41;19.00;55.50
7900;DHT22;3995;50.856;4.404;2022-10-03T12:16:17;19.10;55.70
7900;DHT22;3995;50.856;4.404;2022-10-03T12:18:52;19.10;55.70
7900;DHT22;3995;50.856;4.404;2022-10-03T12:21:26;19.10;55.70
7900;DHT22;3995;50.856;4.404;2022-10-03T12:24:04;19.00;55.70
7900;DHT22;3995;50.856;4.404;2022-10-03T12:26:45;19.00;55.70
7900;DHT22;3995;50.856;4.404;2022-10-03T12:29:20;19.00;55.80
7900;DHT22;3995;50.856;4.404;2022-10-03T12:32:00;19.00;55.70
7900;DHT22;3995;50.856;4.404;2022-10-03T12:34:37;19.00;55.70
7900;DHT22;3995;50.856;4.404;2022-10-03T12:37:17;19.00;55.60
7900;DHT22;3995;50.856;4.404;2022-10-03T12:39:56;19.00;55.60
7900;DHT22;3995;50.856;4.404;2022-10-03T12:42:29;19.00;55.80
7900;DHT22;3995;50.856;4.404;2022-10-03T12:45:02;19.00;55.90
7900;DHT22;3995;50.856;4.404;2022-10-03T12:47:40;19.00;55.50
7900;DHT22;3995;50.856;4.404;2022-10-03T12:50:22;19.00;55.10
7900;DHT22;3995;50.856;4.404;2022-10-03T12:53:03;19.00;55.20
7900;DHT22;3995;50.856;4.404;2022-10-03T12:55:42;19.00;55.30
7900;DHT22;3995;50.856;4.404;2022-10-03T12:58:19;19.00;55.00
7900;DHT22;3995;50.856;4.404;2022-10-03T13:00:58;19.00;54.90
7900;DHT22;3995;50.856;4.404;2022-10-03T13:03:36;19.00;54.70
7900;DHT22;3995;50.856;4.404;2022-10-03T13:06:32;19.00;54.60
7900;DHT22;3995;50.856;4.404;2022-10-03T13:09:16;19.10;54.60
7900;DHT22;3995;50.856;4.404;2022-10-03T13:11:54;19.10;54.80
7900;DHT22;3995;50.856;4.404;2022-10-03T13:14:34;19.10;54.60
7900;DHT22;3995;50.856;4.404;2022-10-03T13:17:16;19.10;54.20
7900;DHT22;3995;50.856;4.404;2022-10-03T13:19:51;19.10;54.60
7900;DHT22;3995;50.856;4.404;2022-10-03T13:22:30;19.10;54.90
7900;DHT22;3995;50.856;4.404;2022-10-03T13:25:04;19.20;54.20
7900;DHT22;3995;50.856;4.404;2022-10-03T13:27:43;19.20;54.00
7900;DHT22;3995;50.856;4.404;2022-10-03T13:30:17;19.20;53.80
7900;DHT22;3995;50.856;4.404;2022-10-03T13:32:55;19.20;53.00
7900;DHT22;3995;50.856;4.404;2022-10-03T13:35:33;19.20;52.90
7900;DHT22;3995;50.856;4.404;2022-10-03T13:38:47;19.20;53.40
7900;DHT22;3995;50.856;4.404;2022-10-03T13:41:28;19.20;53.70
7900;DHT22;3995;50.856;4.404;2022-10-03T13:44:00;19.30;54.00
7900;DHT22;3995;50.856;4.404;2022-10-03T13:46:41;19.30;54.10
7900;DHT22;3995;50.856;4.404;2022-10-03T13:49:30;19.30;54.20
7900;DHT22;3995;50.856;4.404;2022-10-03T13:52:05;19.30;54.00
7900;DHT22;3995;50.856;4.404;2022-10-03T13:54:51;19.30;53.90
7900;DHT22;3995;50.856;4.404;2022-10-03T13:57:25;19.30;53.20
7900;DHT22;3995;50.856;4.404;2022-10-03T13:59:59;19.30;52.90
7900;DHT22;3995;50.856;4.404;2022-10-03T14:02:52;19.30;52.60
7900;DHT22;3995;50.856;4.404;2022-10-03T14:05:40;19.40;52.60
7900;DHT22;3995;50.856;4.404;2022-10-03T14:08:16;19.40;52.40
7900;DHT22;3995;50.856;4.404;2022-10-03T14:11:03;19.30;52.20
7900;DHT22;3995;50.856;4.404;2022-10-03T14:13:49;19.30;51.80
7900;DHT22;3995;50.856;4.404;2022-10-03T14:16:22;19.30;52.10
7900;DHT22;3995;50.856;4.404;2022-10-03T14:19:01;19.30;52.70
7900;DHT22;3995;50.856;4.404;2022-10-03T14:21:42;19.30;51.90
7900;DHT22;3995;50.856;4.404;2022-10-03T14:24:23;19.30;52.00
7900;DHT22;3995;50.856;4.404;2022-10-03T14:26:56;19.30;52.60
7900;DHT22;3995;50.856;4.404;2022-10-03T14:29:30;19.30;52.80
7900;DHT22;3995;50.856;4.404;2022-10-03T14:32:03;19.30;52.90
7900;DHT22;3995;50.856;4.404;2022-10-03T14:34:40;19.30;52.80
7900;DHT22;3995;50.856;4.404;2022-10-03T14:37:21;19.40;52.90
7900;DHT22;3995;50.856;4.404;2022-10-03T14:40:00;19.40;53.20
7900;DHT22;3995;50.856;4.404;2022-10-03T14:42:43;19.30;53.90
7900;DHT22;3995;50.856;4.404;2022-10-03T14:45:14;19.40;53.40
7900;DHT22;3995;50.856;4.404;2022-10-03T14:47:47;19.30;53.30
7900;DHT22;3995;50.856;4.404;2022-10-03T14:50:16;19.30;53.20
7900;DHT22;3995;50.856;4.404;2022-10-03T14:52:49;19.30;53.30
7900;DHT22;3995;50.856;4.404;2022-10-03T14:55:22;19.40;53.30
7900;DHT22;3995;50.856;4.404;2022-10-03T14:57:52;19.30;53.20
7900;DHT22;3995;50.856;4.404;2022-10-03T15:00:26;19.30;53.50
7900;DHT22;3995;50.856;4.404;2022-10-03T15:02:54;19.40;53.70
7900;DHT22;3995;50.856;4.404;2022-10-03T15:05:32;19.40;53.80
7900;DHT22;3995;50.856;4.404;2022-10-03T15:08:12;19.40;53.50
7900;DHT22;3995;50.856;4.404;2022-10-03T15:10:42;19.40;53.40
7900;DHT22;3995;50.856;4.404;2022-10-03T15:13:11;19.30;53.30
7900;DHT22;3995;50.856;4.404;2022-10-03T15:15:44;19.30;53.30
7900;DHT22;3995;50.856;4.404;2022-10-03T15:18:15;19.30;53.30
7900;DHT22;3995;50.856;4.404;2022-10-03T15:20:44;19.40;53.30
7900;DHT22;3995;50.856;4.404;2022-10-03T15:23:20;19.30;53.20
7900;DHT22;3995;50.856;4.404;2022-10-03T15:25:50;19.30;53.20
7900;DHT22;3995;50.856;4.404;2022-10-03T15:28:20;19.30;53.20
7900;DHT22;3995;50.856;4.404;2022-10-03T15:30:50;19.30;52.90
7900;DHT22;3995;50.856;4.404;2022-10-03T15:33:23;19.30;53.00
7900;DHT22;3995;50.856;4.404;2022-10-03T15:35:56;19.30;53.00
7900;DHT22;3995;50.856;4.404;2022-10-03T15:38:32;19.30;53.10
7900;DHT22;3995;50.856;4.404;2022-10-03T15:41:08;19.30;53.20
7900;DHT22;3995;50.856;4.404;2022-10-03T15:43:42;19.20;53.40
7900;DHT22;3995;50.856;4.404;2022-10-03T15:46:13;19.30;53.70
7900;DHT22;3995;50.856;4.404;2022-10-03T15:48:42;19.30;53.90
7900;DHT22;3995;50.856;4.404;2022-10-03T15:51:16;19.30;54.20
7900;DHT22;3995;50.856;4.404;2022-10-03T15:53:47;19.20;53.80
7900;DHT22;3995;50.856;4.404;2022-10-03T15:56:22;19.20;53.80
7900;DHT22;3995;50.856;4.404;2022-10-03T15:58:53;19.20;53.80
7900;DHT22;3995;50.856;4.404;2022-10-03T16:01:25;19.20;53.90
7900;DHT22;3995;50.856;4.404;2022-10-03T16:03:55;19.20;54.00
7900;DHT22;3995;50.856;4.404;2022-10-03T16:06:26;19.20;54.50
7900;DHT22;3995;50.856;4.404;2022-10-03T16:09:01;19.20;53.90
7900;DHT22;3995;50.856;4.404;2022-10-03T16:11:37;19.10;53.80
7900;DHT22;3995;50.856;4.404;2022-10-03T16:14:14;19.20;54.10
7900;DHT22;3995;50.856;4.404;2022-10-03T16:16:46;19.20;54.20
7900;DHT22;3995;50.856;4.404;2022-10-03T16:19:36;19.10;54.10
7900;DHT22;3995;50.856;4.404;2022-10-03T16:22:12;19.20;54.20
7900;DHT22;3995;50.856;4.404;2022-10-03T16:24:57;19.10;54.30
7900;DHT22;3995;50.856;4.404;2022-10-03T16:27:30;19.10;54.40
7900;DHT22;3995;50.856;4.404;2022-10-03T16:30:13;19.10;54.40
7900;DHT22;3995;50.856;4.404;2022-10-03T16:32:48;19.10;54.40
7900;DHT22;3995;50.856;4.404;2022-10-03T16:35:26;19.10;54.40
7900;DHT22;3995;50.856;4.404;2022-10-03T16:37:56;19.10;54.30
7900;DHT22;3995;50.856;4.404;2022-10-03T16:40:25;19.10;54.40
7900;DHT22;3995;50.856;4.404;2022-10-03T16:42:56;19.10;54.40
7900;DHT22;3995;50.856;4.404;2022-10-03T16:45:26;19.10;54.40
7900;DHT22;3995;50.856;4.404;2022-10-03T16:47:57;19.10;54.40
7900;DHT22;3995;50.856;4.404;2022-10-03T16:50:48;19.00;54.30
7900;DHT22;3995;50.856;4.404;2022-10-03T16:53:16;19.00;54.40
7900;DHT22;3995;50.856;4.404;2022-10-03T16:55:49;19.00;54.40
7900;DHT22;3995;50.856;4.404;2022-10-03T16:58:21;19.00;54.40
7900;DHT22;3995;50.856;4.404;2022-10-03T17:00:52;19.00;54.50
7900;DHT22;3995;50.856;4.404;2022-10-03T17:03:23;19.00;54.60
7900;DHT22;3995;50.856;4.404;2022-10-03T17:05:54;19.00;54.70
7900;DHT22;3995;50.856;4.404;2022-10-03T17:08:26;19.00;54.70
7900;DHT22;3995;50.856;4.404;2022-10-03T17:11:00;19.00;54.80
7900;DHT22;3995;50.856;4.404;2022-10-03T17:13:36;19.00;55.00
7900;DHT22;3995;50.856;4.404;2022-10-03T17:16:10;19.00;55.20
7900;DHT22;3995;50.856;4.404;2022-10-03T17:18:41;18.90;55.30
7900;DHT22;3995;50.856;4.404;2022-10-03T17:21:19;18.90;55.50
7900;DHT22;3995;50.856;4.404;2022-10-03T17:23:52;18.90;55.50
7900;DHT22;3995;50.856;4.404;2022-10-03T17:26:29;18.90;55.60
7900;DHT22;3995;50.856;4.404;2022-10-03T17:29:04;18.80;55.60
7900;DHT22;3995;50.856;4.404;2022-10-03T17:31:40;18.80;55.80
7900;DHT22;3995;50.856;4.404;2022-10-03T17:34:13;18.80;55.80
7900;DHT22;3995;50.856;4.404;2022-10-03T17:39:49;18.80;56.00
7900;DHT22;3995;50.856;4.404;2022-10-03T17:42:37;18.70;56.00
7900;DHT22;3995;50.856;4.404;2022-10-03T17:45:23;18.70;56.10
7900;DHT22;3995;50.856;4.404;2022-10-03T17:47:55;18.70;56.10
7900;DHT22;3995;50.856;4.404;2022-10-03T17:50:28;18.60;56.10
7900;DHT22;3995;50.856;4.404;2022-10-03T17:52:56;18.60;56.20
7900;DHT22;3995;50.856;4.404;2022-10-03T17:55:28;18.60;56.20
7900;DHT22;3995;50.856;4.404;2022-10-03T17:57:59;18.60;56.30
7900;DHT22;3995;50.856;4.404;2022-10-03T18:00:32;18.60;56.40
7900;DHT22;3995;50.856;4.404;2022-10-03T18:03:03;18.60;56.40
7900;DHT22;3995;50.856;4.404;2022-10-03T18:05:34;18.60;56.40
7900;DHT22;3995;50.856;4.404;2022-10-03T18:08:06;18.50;56.50
7900;DHT22;3995;50.856;4.404;2022-10-03T18:10:37;18.50;56.50
7900;DHT22;3995;50.856;4.404;2022-10-03T18:13:14;18.50;56.60
7900;DHT22;3995;50.856;4.404;2022-10-03T18:16:12;18.50;56.60
7900;DHT22;3995;50.856;4.404;2022-10-03T18:18:51;18.50;56.50
7900;DHT22;3995;50.856;4.404;2022-10-03T18:24:21;18.40;56.70
7900;DHT22;3995;50.856;4.404;2022-10-03T18:27:01;18.40;56.90
7900;DHT22;3995;50.856;4.404;2022-10-03T18:29:33;18.40;56.90
7900;DHT22;3995;50.856;4.404;2022-10-03T18:32:11;18.30;56.90
7900;DHT22;3995;50.856;4.404;2022-10-03T18:34:43;18.30;56.90
7900;DHT22;3995;50.856;4.404;2022-10-03T18:37:51;18.30;57.00
7900;DHT22;3995;50.856;4.404;2022-10-03T18:40:24;18.30;56.90
7900;DHT22;3995;50.856;4.404;2022-10-03T18:42:53;18.20;57.20
7900;DHT22;3995;50.856;4.404;2022-10-03T18:45:27;18.20;57.30
7900;DHT22;3995;50.856;4.404;2022-10-03T18:47:58;18.20;57.40
7900;DHT22;3995;50.856;4.404;2022-10-03T18:50:32;18.20;57.50
7900;DHT22;3995;50.856;4.404;2022-10-03T18:53:13;18.20;57.60
7900;DHT22;3995;50.856;4.404;2022-10-03T18:55:43;18.20;57.60
7900;DHT22;3995;50.856;4.404;2022-10-03T18:58:17;18.20;57.70
7900;DHT22;3995;50.856;4.404;2022-10-03T19:00:51;18.20;57.70
7900;DHT22;3995;50.856;4.404;2022-10-03T19:03:25;18.20;57.70
7900;DHT22;3995;50.856;4.404;2022-10-03T19:05:58;18.20;57.80
7900;DHT22;3995;50.856;4.404;2022-10-03T19:08:35;18.20;58.30
7900;DHT22;3995;50.856;4.404;2022-10-03T19:11:10;18.20;57.80
7900;DHT22;3995;50.856;4.404;2022-10-03T19:13:44;18.20;57.80
7900;DHT22;3995;50.856;4.404;2022-10-03T19:16:31;18.10;57.80
7900;DHT22;3995;50.856;4.404;2022-10-03T19:19:08;18.10;57.70
7900;DHT22;3995;50.856;4.404;2022-10-03T19:21:38;18.00;57.70
7900;DHT22;3995;50.856;4.404;2022-10-03T19:24:09;18.00;57.70
7900;DHT22;3995;50.856;4.404;2022-10-03T19:26:44;18.00;57.60
7900;DHT22;3995;50.856;4.404;2022-10-03T19:29:18;18.00;57.60
7900;DHT22;3995;50.856;4.404;2022-10-03T19:32:00;18.00;57.70
7900;DHT22;3995;50.856;4.404;2022-10-03T19:34:34;18.00;57.70
7900;DHT22;3995;50.856;4.404;2022-10-03T19:37:06;18.00;57.80
7900;DHT22;3995;50.856;4.404;2022-10-03T19:39:37;18.00;57.80
7900;DHT22;3995;50.856;4.404;2022-10-03T19:42:23;18.00;57.80
7900;DHT22;3995;50.856;4.404;2022-10-03T19:44:55;18.00;58.30
7900;DHT22;3995;50.856;4.404;2022-10-03T19:47:28;18.00;57.90
7900;DHT22;3995;50.856;4.404;2022-10-03T19:50:03;18.00;57.80
7900;DHT22;3995;50.856;4.404;2022-10-03T19:52:34;18.00;57.90
7900;DHT22;3995;50.856;4.404;2022-10-03T19:55:11;17.90;58.50
7900;DHT22;3995;50.856;4.404;2022-10-03T19:57:45;17.90;57.80
7900;DHT22;3995;50.856;4.404;2022-10-03T20:00:26;17.90;57.80
7900;DHT22;3995;50.856;4.404;2022-10-03T20:03:04;17.90;57.80
7900;DHT22;3995;50.856;4.404;2022-10-03T20:05:37;17.90;57.80
7900;DHT22;3995;50.856;4.404;2022-10-03T20:08:18;17.90;57.90
7900;DHT22;3995;50.856;4.404;2022-10-03T20:11:02;17.90;57.80
7900;DHT22;3995;50.856;4.404;2022-10-03T20:13:31;17.90;57.80
7900;DHT22;3995;50.856;4.404;2022-10-03T20:15:59;17.80;57.90